Roosevelt Park, Michigan
Current Conditions -  °F | °C
As of 7:40 AM on Thursday 23 Oct 2014 (Local Time) from KMKG Reporting Station
Haze Haze  
Wind Chill: 27°   Ceiling: 200
Heat Index: 32°   Visibility: 0.75mi
Dew Point: 29°   Wind: 5mph
Humidity: 88%   Direction: 120°ESE
Pressure: 30.24"   Gusts: NA
Location:  43.1806°N, 86.2682°W
Report Text: KMKG 231140Z 12004KT 3/4SM R32/2200V3500FT BR VV002 00/M02 A3024 RMK AO2 I1000 T00001017 $
Loading
Personal Weather Stations






























Interactive Weather Map
Tropical Storm Tracking
New forecast layout! Learn more

10-Day Weather Forecast

Advertisements
Track Severe Weather on mobile